sensor_id;sensor_type;location;lat;lon;timestamp;pressure;altitude;pressure_sealevel;temperature;humidity
28027;BME280;15344;52.342;-1.290;2024-01-10T00:02:16;101817.28;;;1.77;100.00
28027;BME280;15344;52.342;-1.290;2024-01-10T00:04:41;101819.21;;;2.27;100.00
28027;BME280;15344;52.342;-1.290;2024-01-10T00:07:07;101817.09;;;2.08;100.00
28027;BME280;15344;52.342;-1.290;2024-01-10T00:09:33;101817.52;;;1.88;100.00
28027;BME280;15344;52.342;-1.290;2024-01-10T00:11:58;101810.74;;;1.93;100.00
28027;BME280;15344;52.342;-1.290;2024-01-10T00:14:24;101811.51;;;1.39;100.00
28027;BME280;15344;52.342;-1.290;2024-01-10T00:16:50;101812.05;;;1.42;100.00
28027;BME280;15344;52.342;-1.290;2024-01-10T00:19:15;101807.77;;;1.66;100.00
28027;BME280;15344;52.342;-1.290;2024-01-10T00:21:41;101808.83;;;1.84;100.00
28027;BME280;15344;52.342;-1.290;2024-01-10T00:24:07;101806.53;;;1.99;100.00
28027;BME280;15344;52.342;-1.290;2024-01-10T00:26:32;101804.93;;;1.56;100.00
28027;BME280;15344;52.342;-1.290;2024-01-10T00:28:58;101805.22;;;1.97;100.00
28027;BME280;15344;52.342;-1.290;2024-01-10T00:31:24;101807.02;;;1.70;100.00
28027;BME280;15344;52.342;-1.290;2024-01-10T00:33:50;101795.27;;;1.39;100.00
28027;BME280;15344;52.342;-1.290;2024-01-10T00:36:15;101796.88;;;1.19;100.00
28027;BME280;15344;52.342;-1.290;2024-01-10T00:38:41;101799.91;;;0.83;100.00
28027;BME280;15344;52.342;-1.290;2024-01-10T00:41:07;101785.12;;;1.36;100.00
28027;BME280;15344;52.342;-1.290;2024-01-10T00:43:32;101792.23;;;1.50;100.00
28027;BME280;15344;52.342;-1.290;2024-01-10T00:45:59;101789.71;;;0.72;100.00
28027;BME280;15344;52.342;-1.290;2024-01-10T00:48:24;101791.41;;;0.18;100.00
28027;BME280;15344;52.342;-1.290;2024-01-10T00:50:50;101783.17;;;1.42;100.00
28027;BME280;15344;52.342;-1.290;2024-01-10T00:53:15;101789.30;;;1.25;100.00
28027;BME280;15344;52.342;-1.290;2024-01-10T00:55:41;101785.32;;;1.08;100.00
28027;BME280;15344;52.342;-1.290;2024-01-10T00:58:07;101781.48;;;1.20;100.00
28027;BME280;15344;52.342;-1.290;2024-01-10T01:00:32;101787.60;;;1.60;100.00
28027;BME280;15344;52.342;-1.290;2024-01-10T01:02:58;101782.00;;;0.92;100.00
28027;BME280;15344;52.342;-1.290;2024-01-10T01:05:23;101782.86;;;1.76;100.00
28027;BME280;15344;52.342;-1.290;2024-01-10T01:07:49;101776.72;;;1.66;100.00
28027;BME280;15344;52.342;-1.290;2024-01-10T01:10:15;101772.39;;;0.89;100.00
28027;BME280;15344;52.342;-1.290;2024-01-10T01:12:41;101771.64;;;1.35;100.00
28027;BME280;15344;52.342;-1.290;2024-01-10T01:15:08;101775.24;;;0.77;100.00
28027;BME280;15344;52.342;-1.290;2024-01-10T01:17:32;101766.79;;;1.36;100.00
28027;BME280;15344;52.342;-1.290;2024-01-10T01:19:58;101770.54;;;1.29;100.00
28027;BME280;15344;52.342;-1.290;2024-01-10T01:22:24;101768.49;;;2.41;100.00
28027;BME280;15344;52.342;-1.290;2024-01-10T01:24:49;101771.33;;;2.24;100.00
28027;BME280;15344;52.342;-1.290;2024-01-10T01:27:15;101767.81;;;1.59;100.00
28027;BME280;15344;52.342;-1.290;2024-01-10T01:29:40;101766.72;;;2.12;100.00
28027;BME280;15344;52.342;-1.290;2024-01-10T01:32:08;101768.84;;;2.65;100.00
28027;BME280;15344;52.342;-1.290;2024-01-10T01:34:32;101771.00;;;2.13;100.00
28027;BME280;15344;52.342;-1.290;2024-01-10T01:36:58;101762.40;;;1.16;100.00
28027;BME280;15344;52.342;-1.290;2024-01-10T01:39:23;101761.51;;;1.57;100.00
28027;BME280;15344;52.342;-1.290;2024-01-10T01:41:49;101757.38;;;1.40;100.00
28027;BME280;15344;52.342;-1.290;2024-01-10T01:44:15;101760.43;;;2.18;100.00
28027;BME280;15344;52.342;-1.290;2024-01-10T01:46:41;101760.08;;;2.21;100.00
28027;BME280;15344;52.342;-1.290;2024-01-10T01:49:07;101759.45;;;1.82;100.00
28027;BME280;15344;52.342;-1.290;2024-01-10T01:51:34;101757.41;;;2.17;100.00
28027;BME280;15344;52.342;-1.290;2024-01-10T01:53:58;101762.54;;;0.87;100.00
28027;BME280;15344;52.342;-1.290;2024-01-10T01:56:23;101755.88;;;1.44;100.00
28027;BME280;15344;52.342;-1.290;2024-01-10T01:58:50;101757.37;;;1.65;100.00
28027;BME280;15344;52.342;-1.290;2024-01-10T02:01:15;101759.35;;;0.87;100.00
28027;BME280;15344;52.342;-1.290;2024-01-10T02:03:40;101768.48;;;1.56;100.00
28027;BME280;15344;52.342;-1.290;2024-01-10T02:06:07;101765.54;;;0.92;100.00
28027;BME280;15344;52.342;-1.290;2024-01-10T02:08:32;101766.91;;;1.94;100.00
28027;BME280;15344;52.342;-1.290;2024-01-10T02:10:57;101771.84;;;2.14;100.00
28027;BME280;15344;52.342;-1.290;2024-01-10T02:13:24;101771.33;;;1.92;100.00
28027;BME280;15344;52.342;-1.290;2024-01-10T02:15:49;101772.39;;;1.87;100.00
28027;BME280;15344;52.342;-1.290;2024-01-10T02:18:14;101775.00;;;1.00;100.00
28027;BME280;15344;52.342;-1.290;2024-01-10T02:20:43;101780.77;;;2.04;100.00
28027;BME280;15344;52.342;-1.290;2024-01-10T02:23:06;101772.17;;;1.28;100.00
28027;BME280;15344;52.342;-1.290;2024-01-10T02:25:32;101775.57;;;0.81;100.00
28027;BME280;15344;52.342;-1.290;2024-01-10T02:27:57;101770.16;;;1.86;100.00
28027;BME280;15344;52.342;-1.290;2024-01-10T02:30:23;101770.96;;;1.94;100.00
28027;BME280;15344;52.342;-1.290;2024-01-10T02:32:49;101768.59;;;1.58;100.00
28027;BME280;15344;52.342;-1.290;2024-01-10T02:35:14;101766.02;;;1.96;100.00
28027;BME280;15344;52.342;-1.290;2024-01-10T02:37:40;101765.82;;;2.51;100.00
28027;BME280;15344;52.342;-1.290;2024-01-10T02:40:07;101763.79;;;2.39;100.00
28027;BME280;15344;52.342;-1.290;2024-01-10T02:42:32;101766.99;;;1.49;100.00
28027;BME280;15344;52.342;-1.290;2024-01-10T02:44:57;101765.20;;;1.17;100.00
28027;BME280;15344;52.342;-1.290;2024-01-10T02:47:22;101763.66;;;1.72;100.00
28027;BME280;15344;52.342;-1.290;2024-01-10T02:49:48;101765.12;;;1.79;100.00
28027;BME280;15344;52.342;-1.290;2024-01-10T02:52:14;101762.78;;;1.90;100.00
28027;BME280;15344;52.342;-1.290;2024-01-10T02:54:39;101763.79;;;1.94;100.00
28027;BME280;15344;52.342;-1.290;2024-01-10T02:57:05;101767.41;;;2.42;100.00
28027;BME280;15344;52.342;-1.290;2024-01-10T02:59:31;101763.51;;;1.62;100.00
28027;BME280;15344;52.342;-1.290;2024-01-10T03:01:56;101765.80;;;1.87;100.00
28027;BME280;15344;52.342;-1.290;2024-01-10T03:04:22;101761.97;;;1.39;100.00
28027;BME280;15344;52.342;-1.290;2024-01-10T03:06:48;101767.24;;;1.26;100.00
28027;BME280;15344;52.342;-1.290;2024-01-10T03:09:14;101763.51;;;1.98;100.00
28027;BME280;15344;52.342;-1.290;2024-01-10T03:11:39;101763.72;;;1.91;100.00
28027;BME280;15344;52.342;-1.290;2024-01-10T03:14:08;101766.59;;;1.93;100.00
28027;BME280;15344;52.342;-1.290;2024-01-10T03:16:31;101763.13;;;2.43;100.00
28027;BME280;15344;52.342;-1.290;2024-01-10T03:18:56;101757.29;;;2.57;100.00
28027;BME280;15344;52.342;-1.290;2024-01-10T03:21:22;101755.92;;;2.60;100.00
28027;BME280;15344;52.342;-1.290;2024-01-10T03:23:48;101759.17;;;2.13;100.00
28027;BME280;15344;52.342;-1.290;2024-01-10T03:26:13;101761.35;;;2.48;100.00
28027;BME280;15344;52.342;-1.290;2024-01-10T03:28:39;101761.57;;;2.18;100.00
28027;BME280;15344;52.342;-1.290;2024-01-10T03:31:05;101762.72;;;2.74;100.00
28027;BME280;15344;52.342;-1.290;2024-01-10T03:33:30;101761.62;;;3.07;100.00
28027;BME280;15344;52.342;-1.290;2024-01-10T03:35:56;101759.32;;;3.46;100.00
28027;BME280;15344;52.342;-1.290;2024-01-10T03:38:22;101766.34;;;2.43;100.00
28027;BME280;15344;52.342;-1.290;2024-01-10T03:40:48;101763.12;;;3.18;100.00
28027;BME280;15344;52.342;-1.290;2024-01-10T03:43:13;101764.27;;;3.51;100.00
28027;BME280;15344;52.342;-1.290;2024-01-10T03:45:39;101768.02;;;1.88;100.00
28027;BME280;15344;52.342;-1.290;2024-01-10T03:48:05;101770.62;;;2.62;100.00
28027;BME280;15344;52.342;-1.290;2024-01-10T03:50:30;101757.97;;;3.41;100.00
28027;BME280;15344;52.342;-1.290;2024-01-10T03:52:55;101760.67;;;3.27;100.00
28027;BME280;15344;52.342;-1.290;2024-01-10T03:55:21;101758.38;;;3.53;100.00
28027;BME280;15344;52.342;-1.290;2024-01-10T03:57:46;101761.20;;;3.18;100.00
28027;BME280;15344;52.342;-1.290;2024-01-10T04:00:13;101760.08;;;2.92;100.00
28027;BME280;15344;52.342;-1.290;2024-01-10T04:02:38;101756.12;;;2.88;100.00
28027;BME280;15344;52.342;-1.290;2024-01-10T04:05:07;101756.93;;;3.57;100.00
28027;BME280;15344;52.342;-1.290;2024-01-10T04:07:29;101749.07;;;3.54;100.00
28027;BME280;15344;52.342;-1.290;2024-01-10T04:09:55;101750.31;;;3.28;100.00
28027;BME280;15344;52.342;-1.290;2024-01-10T04:12:21;101750.47;;;3.94;99.77
28027;BME280;15344;52.342;-1.290;2024-01-10T04:14:46;101751.58;;;4.06;97.84
28027;BME280;15344;52.342;-1.290;2024-01-10T04:17:12;101756.31;;;3.70;98.41
28027;BME280;15344;52.342;-1.290;2024-01-10T04:19:38;101751.10;;;3.31;100.00
28027;BME280;15344;52.342;-1.290;2024-01-10T04:22:04;101754.30;;;2.16;100.00
28027;BME280;15344;52.342;-1.290;2024-01-10T04:24:29;101752.73;;;3.30;100.00
28027;BME280;15344;52.342;-1.290;2024-01-10T04:26:55;101751.60;;;4.36;92.51
28027;BME280;15344;52.342;-1.290;2024-01-10T04:29:20;101758.82;;;3.67;98.33
28027;BME280;15344;52.342;-1.290;2024-01-10T04:31:46;101758.72;;;3.06;100.00
28027;BME280;15344;52.342;-1.290;2024-01-10T04:34:12;101762.63;;;4.19;93.73
28027;BME280;15344;52.342;-1.290;2024-01-10T04:36:37;101761.13;;;4.49;92.01
28027;BME280;15344;52.342;-1.290;2024-01-10T04:39:03;101759.80;;;3.19;95.95
28027;BME280;15344;52.342;-1.290;2024-01-10T04:41:29;101764.08;;;3.97;92.51
28027;BME280;15344;52.342;-1.290;2024-01-10T04:43:55;101761.96;;;4.43;88.99
28027;BME280;15344;52.342;-1.290;2024-01-10T04:46:20;101763.08;;;4.17;90.00
28027;BME280;15344;52.342;-1.290;2024-01-10T04:48:46;101765.79;;;3.45;99.07
28027;BME280;15344;52.342;-1.290;2024-01-10T04:51:12;101764.98;;;4.24;91.14
28027;BME280;15344;52.342;-1.290;2024-01-10T04:53:37;101768.76;;;3.89;92.33
28027;BME280;15344;52.342;-1.290;2024-01-10T04:56:03;101763.03;;;3.73;93.35
28027;BME280;15344;52.342;-1.290;2024-01-10T04:58:29;101759.93;;;3.50;95.09
28027;BME280;15344;52.342;-1.290;2024-01-10T05:00:54;101765.92;;;3.64;97.73
28027;BME280;15344;52.342;-1.290;2024-01-10T05:03:20;101763.43;;;3.45;99.57
28027;BME280;15344;52.342;-1.290;2024-01-10T05:05:46;101760.88;;;3.61;95.02
28027;BME280;15344;52.342;-1.290;2024-01-10T05:08:11;101762.72;;;3.31;95.41
28027;BME280;15344;52.342;-1.290;2024-01-10T05:10:37;101753.51;;;2.81;100.00
28027;BME280;15344;52.342;-1.290;2024-01-10T05:13:03;101757.35;;;3.58;96.92
28027;BME280;15344;52.342;-1.290;2024-01-10T05:15:28;101758.47;;;3.27;97.46
28027;BME280;15344;52.342;-1.290;2024-01-10T05:17:54;101753.83;;;3.68;95.29
28027;BME280;15344;52.342;-1.290;2024-01-10T05:20:20;101761.26;;;3.43;98.11
28027;BME280;15344;52.342;-1.290;2024-01-10T05:22:45;101758.67;;;3.33;97.12
28027;BME280;15344;52.342;-1.290;2024-01-10T05:25:11;101756.41;;;3.75;96.93
28027;BME280;15344;52.342;-1.290;2024-01-10T05:27:37;101754.16;;;3.13;99.51
28027;BME280;15344;52.342;-1.290;2024-01-10T05:30:03;101750.99;;;3.81;96.21
28027;BME280;15344;52.342;-1.290;2024-01-10T05:32:28;101749.78;;;4.42;93.82
28027;BME280;15344;52.342;-1.290;2024-01-10T05:34:54;101747.58;;;4.54;93.01
28027;BME280;15344;52.342;-1.290;2024-01-10T05:37:20;101746.37;;;3.69;95.93
28027;BME280;15344;52.342;-1.290;2024-01-10T05:39:45;101742.29;;;3.28;98.31
28027;BME280;15344;52.342;-1.290;2024-01-10T05:42:11;101744.78;;;2.72;100.00
28027;BME280;15344;52.342;-1.290;2024-01-10T05:44:37;101743.31;;;2.98;99.81
28027;BME280;15344;52.342;-1.290;2024-01-10T05:47:02;101745.54;;;2.42;100.00
28027;BME280;15344;52.342;-1.290;2024-01-10T05:49:28;101737.63;;;3.66;96.25
28027;BME280;15344;52.342;-1.290;2024-01-10T05:51:53;101742.43;;;3.81;93.80
28027;BME280;15344;52.342;-1.290;2024-01-10T05:54:19;101744.20;;;3.26;98.09
28027;BME280;15344;52.342;-1.290;2024-01-10T05:56:45;101737.13;;;2.95;99.27
28027;BME280;15344;52.342;-1.290;2024-01-10T05:59:11;101737.46;;;3.01;100.00
28027;BME280;15344;52.342;-1.290;2024-01-10T06:01:37;101734.87;;;2.93;96.84
28027;BME280;15344;52.342;-1.290;2024-01-10T06:04:02;101738.85;;;3.30;96.98
28027;BME280;15344;52.342;-1.290;2024-01-10T06:06:28;101740.17;;;3.12;98.80
28027;BME280;15344;52.342;-1.290;2024-01-10T06:08:54;101738.48;;;2.50;99.02
28027;BME280;15344;52.342;-1.290;2024-01-10T06:11:19;101740.35;;;2.98;95.47
28027;BME280;15344;52.342;-1.290;2024-01-10T06:13:46;101740.68;;;2.81;99.09
28027;BME280;15344;52.342;-1.290;2024-01-10T06:16:11;101738.53;;;2.99;100.00
28027;BME280;15344;52.342;-1.290;2024-01-10T06:18:36;101740.76;;;3.59;98.70
28027;BME280;15344;52.342;-1.290;2024-01-10T06:21:02;101732.17;;;3.13;96.81
28027;BME280;15344;52.342;-1.290;2024-01-10T06:23:28;101737.69;;;3.55;97.33
28027;BME280;15344;52.342;-1.290;2024-01-10T06:25:54;101738.54;;;2.51;100.00
28027;BME280;15344;52.342;-1.290;2024-01-10T06:28:19;101739.51;;;3.25;93.07
28027;BME280;15344;52.342;-1.290;2024-01-10T06:30:47;101738.56;;;3.01;94.42
28027;BME280;15344;52.342;-1.290;2024-01-10T06:33:11;101734.55;;;3.43;93.92
28027;BME280;15344;52.342;-1.290;2024-01-10T06:35:37;101739.46;;;3.00;94.48
28027;BME280;15344;52.342;-1.290;2024-01-10T06:38:03;101741.60;;;3.41;95.41
28027;BME280;15344;52.342;-1.290;2024-01-10T06:40:28;101738.86;;;3.26;92.74
28027;BME280;15344;52.342;-1.290;2024-01-10T06:42:54;101739.94;;;3.78;91.34
28027;BME280;15344;52.342;-1.290;2024-01-10T06:45:19;101744.63;;;3.72;91.40
28027;BME280;15344;52.342;-1.290;2024-01-10T06:47:45;101745.52;;;2.77;97.04
28027;BME280;15344;52.342;-1.290;2024-01-10T06:50:10;101745.06;;;3.28;92.92
28027;BME280;15344;52.342;-1.290;2024-01-10T06:52:36;101741.60;;;3.50;93.96
28027;BME280;15344;52.342;-1.290;2024-01-10T06:55:03;101739.00;;;4.25;89.23
28027;BME280;15344;52.342;-1.290;2024-01-10T06:57:27;101744.67;;;2.72;95.76
28027;BME280;15344;52.342;-1.290;2024-01-10T06:59:53;101744.62;;;2.65;97.01
28027;BME280;15344;52.342;-1.290;2024-01-10T07:02:19;101739.30;;;2.84;98.49
28027;BME280;15344;52.342;-1.290;2024-01-10T07:04:45;101740.00;;;3.58;92.33
28027;BME280;15344;52.342;-1.290;2024-01-10T07:07:11;101737.25;;;3.34;91.61
28027;BME280;15344;52.342;-1.290;2024-01-10T07:09:36;101736.92;;;3.05;93.87
28027;BME280;15344;52.342;-1.290;2024-01-10T07:12:02;101739.06;;;3.56;90.67
28027;BME280;15344;52.342;-1.290;2024-01-10T07:14:33;101738.01;;;3.21;91.43
28027;BME280;15344;52.342;-1.290;2024-01-10T07:16:53;101737.85;;;4.45;86.69
28027;BME280;15344;52.342;-1.290;2024-01-10T07:19:19;101740.35;;;4.56;82.59
28027;BME280;15344;52.342;-1.290;2024-01-10T07:21:44;101741.51;;;4.36;83.39
28027;BME280;15344;52.342;-1.290;2024-01-10T07:24:10;101739.98;;;4.06;86.11
28027;BME280;15344;52.342;-1.290;2024-01-10T07:26:36;101742.18;;;4.83;83.70
28027;BME280;15344;52.342;-1.290;2024-01-10T07:29:01;101748.10;;;4.20;87.53
28027;BME280;15344;52.342;-1.290;2024-01-10T07:31:27;101747.10;;;4.06;88.71
28027;BME280;15344;52.342;-1.290;2024-01-10T07:33:52;101749.42;;;4.08;87.90
28027;BME280;15344;52.342;-1.290;2024-01-10T07:36:18;101750.17;;;4.07;86.51
28027;BME280;15344;52.342;-1.290;2024-01-10T07:38:43;101750.06;;;3.82;88.77
28027;BME280;15344;52.342;-1.290;2024-01-10T07:41:09;101757.35;;;3.95;86.09
28027;BME280;15344;52.342;-1.290;2024-01-10T07:43:35;101760.99;;;3.40;89.29
28027;BME280;15344;52.342;-1.290;2024-01-10T07:46:01;101761.69;;;3.10;91.33
28027;BME280;15344;52.342;-1.290;2024-01-10T07:48:26;101765.03;;;3.99;86.87
28027;BME280;15344;52.342;-1.290;2024-01-10T07:50:52;101761.67;;;3.12;91.01
28027;BME280;15344;52.342;-1.290;2024-01-10T07:53:18;101763.15;;;3.54;89.00
28027;BME280;15344;52.342;-1.290;2024-01-10T07:55:44;101765.45;;;4.44;85.75
28027;BME280;15344;52.342;-1.290;2024-01-10T07:58:09;101767.98;;;3.85;87.01
28027;BME280;15344;52.342;-1.290;2024-01-10T08:00:35;101769.29;;;4.43;86.95
28027;BME280;15344;52.342;-1.290;2024-01-10T08:03:01;101769.72;;;4.15;85.29
28027;BME280;15344;52.342;-1.290;2024-01-10T08:05:26;101775.45;;;1.92;96.74
28027;BME280;15344;52.342;-1.290;2024-01-10T08:07:52;101766.32;;;3.73;91.73
28027;BME280;15344;52.342;-1.290;2024-01-10T08:10:18;101768.68;;;4.43;87.27
28027;BME280;15344;52.342;-1.290;2024-01-10T08:12:43;101771.74;;;4.14;87.33
28027;BME280;15344;52.342;-1.290;2024-01-10T08:15:10;101770.96;;;3.50;91.00
28027;BME280;15344;52.342;-1.290;2024-01-10T08:17:35;101768.73;;;4.05;87.73
28027;BME280;15344;52.342;-1.290;2024-01-10T08:20:01;101770.00;;;3.52;90.46
28027;BME280;15344;52.342;-1.290;2024-01-10T08:22:26;101771.58;;;4.04;87.44
28027;BME280;15344;52.342;-1.290;2024-01-10T08:24:52;101771.47;;;4.27;87.47
28027;BME280;15344;52.342;-1.290;2024-01-10T08:27:17;101774.26;;;3.91;87.64
28027;BME280;15344;52.342;-1.290;2024-01-10T08:29:43;101776.11;;;3.48;92.25
28027;BME280;15344;52.342;-1.290;2024-01-10T08:32:09;101777.86;;;4.56;86.75
28027;BME280;15344;52.342;-1.290;2024-01-10T08:34:35;101776.31;;;4.16;89.35
28027;BME280;15344;52.342;-1.290;2024-01-10T08:37:00;101772.53;;;4.88;85.79
28027;BME280;15344;52.342;-1.290;2024-01-10T08:39:26;101773.81;;;4.71;85.13
28027;BME280;15344;52.342;-1.290;2024-01-10T08:41:51;101775.86;;;4.16;87.37
28027;BME280;15344;52.342;-1.290;2024-01-10T08:44:18;101772.20;;;3.55;88.50
28027;BME280;15344;52.342;-1.290;2024-01-10T08:46:43;101769.65;;;4.26;88.26
28027;BME280;15344;52.342;-1.290;2024-01-10T08:49:09;101771.58;;;3.43;92.62
28027;BME280;15344;52.342;-1.290;2024-01-10T08:51:34;101769.46;;;3.56;90.93
28027;BME280;15344;52.342;-1.290;2024-01-10T08:54:00;101770.03;;;4.43;88.26
28027;BME280;15344;52.342;-1.290;2024-01-10T08:56:26;101768.53;;;3.98;90.89
28027;BME280;15344;52.342;-1.290;2024-01-10T08:58:51;101768.25;;;4.37;86.79
28027;BME280;15344;52.342;-1.290;2024-01-10T09:01:17;101765.36;;;4.76;86.44
28027;BME280;15344;52.342;-1.290;2024-01-10T09:03:43;101763.25;;;3.51;90.17
28027;BME280;15344;52.342;-1.290;2024-01-10T09:06:09;101763.68;;;4.65;85.25
28027;BME280;15344;52.342;-1.290;2024-01-10T09:08:34;101764.95;;;4.50;87.23
28027;BME280;15344;52.342;-1.290;2024-01-10T09:11:00;101767.51;;;3.91;90.95
28027;BME280;15344;52.342;-1.290;2024-01-10T09:13:25;101764.22;;;4.14;90.96
28027;BME280;15344;52.342;-1.290;2024-01-10T09:15:51;101765.97;;;4.28;89.39
28027;BME280;15344;52.342;-1.290;2024-01-10T09:18:16;101765.05;;;4.33;88.83
28027;BME280;15344;52.342;-1.290;2024-01-10T09:20:42;101766.32;;;4.34;88.97
28027;BME280;15344;52.342;-1.290;2024-01-10T09:23:08;101765.49;;;4.81;85.13
28027;BME280;15344;52.342;-1.290;2024-01-10T09:25:33;101759.98;;;3.68;90.61
28027;BME280;15344;52.342;-1.290;2024-01-10T09:27:59;101761.51;;;4.35;91.44
28027;BME280;15344;52.342;-1.290;2024-01-10T09:30:25;101761.13;;;3.48;94.18
28027;BME280;15344;52.342;-1.290;2024-01-10T09:32:50;101762.12;;;3.14;98.78
28027;BME280;15344;52.342;-1.290;2024-01-10T09:35:16;101764.71;;;3.80;96.66
28027;BME280;15344;52.342;-1.290;2024-01-10T09:37:42;101764.48;;;3.49;99.06
28027;BME280;15344;52.342;-1.290;2024-01-10T09:40:09;101764.52;;;4.90;90.99
28027;BME280;15344;52.342;-1.290;2024-01-10T09:42:33;101764.04;;;4.56;91.93
28027;BME280;15344;52.342;-1.290;2024-01-10T09:44:59;101767.35;;;3.92;94.92
28027;BME280;15344;52.342;-1.290;2024-01-10T09:47:24;101770.63;;;4.27;92.96
28027;BME280;15344;52.342;-1.290;2024-01-10T09:49:50;101767.26;;;4.36;91.49
28027;BME280;15344;52.342;-1.290;2024-01-10T09:52:23;101767.07;;;3.36;95.78
28027;BME280;15344;52.342;-1.290;2024-01-10T09:54:42;101772.18;;;4.08;94.12
28027;BME280;15344;52.342;-1.290;2024-01-10T09:57:08;101768.02;;;4.12;92.85
28027;BME280;15344;52.342;-1.290;2024-01-10T09:59:33;101769.16;;;4.21;94.28
28027;BME280;15344;52.342;-1.290;2024-01-10T10:01:58;101766.20;;;4.85;92.11
28027;BME280;15344;52.342;-1.290;2024-01-10T10:04:33;101769.83;;;4.07;93.97
28027;BME280;15344;52.342;-1.290;2024-01-10T10:06:59;101773.40;;;4.23;92.56
28027;BME280;15344;52.342;-1.290;2024-01-10T10:09:15;101778.56;;;4.23;92.46
28027;BME280;15344;52.342;-1.290;2024-01-10T10:11:41;101776.79;;;4.93;91.46
28027;BME280;15344;52.342;-1.290;2024-01-10T10:14:15;101774.16;;;4.93;91.57
28027;BME280;15344;52.342;-1.290;2024-01-10T10:16:32;101773.51;;;6.18;89.18
28027;BME280;15344;52.342;-1.290;2024-01-10T10:18:57;101771.26;;;5.00;92.02
28027;BME280;15344;52.342;-1.290;2024-01-10T10:21:25;101772.14;;;5.04;92.59
28027;BME280;15344;52.342;-1.290;2024-01-10T10:23:57;101777.27;;;6.21;88.32
28027;BME280;15344;52.342;-1.290;2024-01-10T10:26:16;101775.71;;;5.46;89.64
28027;BME280;15344;52.342;-1.290;2024-01-10T10:28:41;101769.60;;;4.39;97.97
28027;BME280;15344;52.342;-1.290;2024-01-10T10:31:06;101765.64;;;5.29;93.23
28027;BME280;15344;52.342;-1.290;2024-01-10T10:33:32;101766.26;;;4.32;100.00
28027;BME280;15344;52.342;-1.290;2024-01-10T10:35:57;101767.45;;;5.41;96.90
28027;BME280;15344;52.342;-1.290;2024-01-10T10:38:22;101768.72;;;4.23;100.00
28027;BME280;15344;52.342;-1.290;2024-01-10T10:40:49;101762.67;;;4.96;96.60
28027;BME280;15344;52.342;-1.290;2024-01-10T10:43:18;101759.48;;;4.75;100.00
28027;BME280;15344;52.342;-1.290;2024-01-10T10:45:41;101767.36;;;5.01;99.86
28027;BME280;15344;52.342;-1.290;2024-01-10T10:48:06;101768.32;;;4.91;99.34
28027;BME280;15344;52.342;-1.290;2024-01-10T10:50:34;101769.08;;;4.75;100.00
28027;BME280;15344;52.342;-1.290;2024-01-10T10:52:57;101764.46;;;3.65;100.00
28027;BME280;15344;52.342;-1.290;2024-01-10T10:55:22;101763.68;;;4.83;100.00
28027;BME280;15344;52.342;-1.290;2024-01-10T10:57:48;101766.69;;;5.66;95.03
28027;BME280;15344;52.342;-1.290;2024-01-10T11:00:15;101764.91;;;4.16;100.00
28027;BME280;15344;52.342;-1.290;2024-01-10T11:02:39;101763.58;;;5.52;98.11
28027;BME280;15344;52.342;-1.290;2024-01-10T11:05:06;101761.90;;;4.53;100.00
28027;BME280;15344;52.342;-1.290;2024-01-10T11:07:30;101756.99;;;5.61;98.93
28027;BME280;15344;52.342;-1.290;2024-01-10T11:09:56;101756.37;;;4.60;99.14
28027;BME280;15344;52.342;-1.290;2024-01-10T11:12:33;101758.54;;;5.48;98.02
28027;BME280;15344;52.342;-1.290;2024-01-10T11:15:01;101759.29;;;5.98;96.31
28027;BME280;15344;52.342;-1.290;2024-01-10T11:22:13;101752.58;;;5.36;98.85
28027;BME280;15344;52.342;-1.290;2024-01-10T11:24:30;101750.93;;;4.56;100.00
28027;BME280;15344;52.342;-1.290;2024-01-10T11:29:20;101755.60;;;5.99;99.29
28027;BME280;15344;52.342;-1.290;2024-01-10T11:31:51;101745.42;;;6.61;95.03
28027;BME280;15344;52.342;-1.290;2024-01-10T11:34:11;101746.51;;;6.67;95.59
28027;BME280;15344;52.342;-1.290;2024-01-10T11:36:37;101744.90;;;4.82;100.00
28027;BME280;15344;52.342;-1.290;2024-01-10T11:39:04;101747.42;;;5.64;100.00
28027;BME280;15344;52.342;-1.290;2024-01-10T11:41:30;101745.49;;;5.83;100.00
28027;BME280;15344;52.342;-1.290;2024-01-10T11:46:19;101746.08;;;5.67;99.65
28027;BME280;15344;52.342;-1.290;2024-01-10T11:48:45;101743.10;;;5.11;100.00
28027;BME280;15344;52.342;-1.290;2024-01-10T11:51:11;101738.39;;;4.91;100.00
28027;BME280;15344;52.342;-1.290;2024-01-10T11:53:41;101739.65;;;5.36;100.00
28027;BME280;15344;52.342;-1.290;2024-01-10T11:56:09;101737.05;;;6.39;100.00
28027;BME280;15344;52.342;-1.290;2024-01-10T11:58:27;101739.05;;;5.82;100.00
28027;BME280;15344;52.342;-1.290;2024-01-10T12:00:53;101735.97;;;5.80;100.00
28027;BME280;15344;52.342;-1.290;2024-01-10T12:03:19;101730.52;;;5.59;100.00
28027;BME280;15344;52.342;-1.290;2024-01-10T12:05:44;101723.30;;;5.34;100.00
28027;BME280;15344;52.342;-1.290;2024-01-10T12:08:10;101720.18;;;5.14;100.00
28027;BME280;15344;52.342;-1.290;2024-01-10T12:10:35;101719.95;;;5.28;100.00
28027;BME280;15344;52.342;-1.290;2024-01-10T12:13:01;101717.71;;;5.21;100.00
28027;BME280;15344;52.342;-1.290;2024-01-10T12:15:26;101715.68;;;5.86;100.00
28027;BME280;15344;52.342;-1.290;2024-01-10T12:17:52;101710.29;;;5.78;100.00
28027;BME280;15344;52.342;-1.290;2024-01-10T12:20:17;101700.94;;;6.05;100.00
28027;BME280;15344;52.342;-1.290;2024-01-10T12:22:43;101695.46;;;6.19;100.00
28027;BME280;15344;52.342;-1.290;2024-01-10T12:25:09;101698.59;;;5.79;100.00
28027;BME280;15344;52.342;-1.290;2024-01-10T12:27:34;101693.93;;;5.78;100.00
28027;BME280;15344;52.342;-1.290;2024-01-10T12:30:00;101682.17;;;6.73;100.00
28027;BME280;15344;52.342;-1.290;2024-01-10T12:32:25;101688.11;;;6.31;100.00
28027;BME280;15344;52.342;-1.290;2024-01-10T12:34:55;101690.11;;;6.23;98.73
28027;BME280;15344;52.342;-1.290;2024-01-10T12:37:16;101683.04;;;5.87;100.00
28027;BME280;15344;52.342;-1.290;2024-01-10T12:39:42;101679.24;;;7.00;96.67
28027;BME280;15344;52.342;-1.290;2024-01-10T12:42:08;101688.20;;;6.36;97.16
28027;BME280;15344;52.342;-1.290;2024-01-10T12:44:33;101685.37;;;6.24;100.00
28027;BME280;15344;52.342;-1.290;2024-01-10T12:46:58;101692.40;;;5.70;100.00